Time;durP1;ratioP1;P1;durP2;ratioP2;P2;SDS_P1;SDS_P2;PMS_P1;PMS_P2;Temp;Humidity;BMP_temperature;BMP_pressure;BME280_temperature;BME280_humidity;BME280_pressure;Samples;Min_cycle;Max_cycle;Signal;HPM_P1;HPM_P2
2023/10/13 00:01:52;;;;;;;3.97;1.98;;;;;;;20.28;53.86;101167.50;16104772;19;129724;-51
2023/10/13 00:07:14;;;;;;;4.78;1.95;;;;;;;20.28;54.09;101164.75;16112594;19;129751;-50
2023/10/13 00:12:37;;;;;;;3.08;1.90;;;;;;;20.27;53.61;101158.34;16122342;19;130122;-56
2023/10/13 00:17:59;;;;;;;2.45;1.60;;;;;;;20.27;53.57;101155.56;16118282;19;130593;-53
2023/10/13 00:23:23;;;;;;;3.97;1.90;;;;;;;20.27;53.83;101149.16;16120328;19;129310;-53
2023/10/13 00:28:47;;;;;;;2.55;1.70;;;;;;;20.26;53.72;101137.22;16117959;19;129559;-49
2023/10/13 00:34:25;;;;;;;2.67;1.40;;;;;;;20.25;53.45;101135.53;16120079;19;129381;-50
2023/10/13 00:39:47;;;;;;;4.25;1.50;;;;;;;20.24;53.47;101128.28;16118483;19;129420;-52
2023/10/13 00:45:16;;;;;;;3.70;1.50;;;;;;;20.24;53.66;101122.72;16115843;19;131658;-48
2023/10/13 00:50:38;;;;;;;2.35;1.48;;;;;;;20.23;53.58;101109.94;16117906;19;131847;-51
2023/10/13 00:56:07;;;;;;;3.78;1.92;;;;;;;20.23;53.94;101096.03;16117265;19;129626;-54
2023/10/13 01:01:32;;;;;;;2.53;1.50;;;;;;;20.23;53.51;101090.50;16116602;19;130994;-51
2023/10/13 01:06:55;;;;;;;4.60;1.83;;;;;;;20.23;53.68;101079.38;16114615;19;130460;-50
2023/10/13 01:12:16;;;;;;;2.30;1.23;;;;;;;20.22;53.85;101068.53;16113555;19;129876;-51
2023/10/13 01:17:38;;;;;;;2.70;1.60;;;;;;;20.21;53.60;101064.91;16114091;19;129690;-50
2023/10/13 01:23:05;;;;;;;2.63;1.30;;;;;;;20.22;53.60;101060.19;16119430;19;129676;-51
2023/10/13 01:28:26;;;;;;;2.47;1.40;;;;;;;20.21;53.70;101059.34;16115912;19;129693;-52
2023/10/13 01:33:51;;;;;;;2.33;1.20;;;;;;;20.20;53.44;101041.00;16115727;19;130250;-53
2023/10/13 01:39:16;;;;;;;1.65;1.15;;;;;;;20.20;53.59;101035.44;16113853;19;131486;-50
2023/10/13 01:44:38;;;;;;;2.40;1.20;;;;;;;20.19;53.35;101019.84;16113577;19;131002;-50
2023/10/13 01:50:14;;;;;;;2.75;1.40;;;;;;;20.20;53.82;101006.81;16110473;19;129471;-52
2023/10/13 01:55:42;;;;;;;2.58;1.10;;;;;;;20.19;53.64;101002.38;16114980;19;131766;-55
2023/10/13 02:01:07;;;;;;;1.60;1.17;;;;;;;20.17;53.34;100988.75;16113803;19;129649;-49
2023/10/13 02:06:34;;;;;;;2.08;1.13;;;;;;;20.18;53.42;100984.88;16114821;19;129732;-49
2023/10/13 02:11:56;;;;;;;1.77;1.05;;;;;;;20.18;53.40;100981.25;16112142;19;131107;-47
2023/10/13 02:17:21;;;;;;;1.27;0.88;;;;;;;20.18;53.52;100961.78;16112625;19;130916;-48
2023/10/13 02:22:49;;;;;;;1.30;1.00;;;;;;;20.18;53.77;100947.91;16113650;19;130115;-49
2023/10/13 02:28:21;;;;;;;1.88;0.90;;;;;;;20.17;53.49;100933.19;16111736;19;129634;-51
2023/10/13 02:33:44;;;;;;;1.85;0.98;;;;;;;20.17;53.66;100921.22;16112163;19;130871;-50
2023/10/13 02:39:09;;;;;;;2.00;1.27;;;;;;;20.16;53.62;100914.84;16112802;19;129871;-51
2023/10/13 02:44:33;;;;;;;1.30;1.20;;;;;;;20.16;53.58;100909.28;16109216;19;131446;-50
2023/10/13 02:49:55;;;;;;;2.03;1.00;;;;;;;20.15;53.53;100902.06;16114301;19;130104;-54
2023/10/13 02:55:25;;;;;;;1.42;0.90;;;;;;;20.16;53.57;100898.19;16159782;19;130858;-51
2023/10/13 03:00:47;;;;;;;2.13;1.00;;;;;;;20.16;53.28;100894.53;16159486;19;130123;-47
2023/10/13 03:06:11;;;;;;;1.48;1.10;;;;;;;20.16;53.49;100875.97;16163446;19;129732;-51
2023/10/13 03:11:33;;;;;;;1.13;0.90;;;;;;;20.15;53.67;100865.94;16157562;19;130285;-51
2023/10/13 03:17:14;;;;;;;2.25;1.00;;;;;;;20.16;53.21;100861.22;16157451;19;129336;-54
2023/10/13 03:22:36;;;;;;;1.42;1.10;;;;;;;20.15;53.44;100863.16;16151058;19;130067;-51
2023/10/13 03:33:26;;;;;;;1.33;1.13;;;;;;;20.14;53.52;100836.50;16157250;19;128920;-52
2023/10/13 03:38:54;;;;;;;2.60;1.20;;;;;;;20.14;53.72;100828.16;16150645;19;129497;-53
2023/10/13 03:44:20;;;;;;;2.33;1.25;;;;;;;20.13;53.74;100823.69;16150121;19;131799;-47
2023/10/13 03:49:42;;;;;;;1.98;1.13;;;;;;;20.14;53.30;100817.88;16120826;19;129542;-48
2023/10/13 03:55:05;;;;;;;1.90;1.48;;;;;;;20.15;53.42;100824.28;16115585;19;129780;-50
2023/10/13 04:00:27;;;;;;;3.58;1.50;;;;;;;20.14;53.53;100811.50;16119817;19;129840;-47
2023/10/13 04:06:08;;;;;;;2.17;1.17;;;;;;;20.14;53.29;100800.38;16120566;19;129638;-50
2023/10/13 04:17:14;;;;;;;2.35;1.67;;;;;;;20.14;53.52;100811.50;16117888;19;129890;-50
2023/10/13 04:33:52;;;;;;;2.13;1.80;;;;;;;20.14;53.42;100815.09;16117419;19;131144;-48
2023/10/13 04:39:29;;;;;;;2.22;1.40;;;;;;;20.14;53.42;100803.16;16116967;19;130116;-50
2023/10/13 04:44:55;;;;;;;5.10;2.30;;;;;;;20.13;53.77;100768.97;16114815;19;129751;-48
2023/10/13 04:50:27;;;;;;;2.83;1.65;;;;;;;20.13;53.74;100748.72;16115682;19;130359;-52
2023/10/13 05:51:57;;;;;;;9.13;2.35;;;;;;;20.09;53.84;100662.31;16110222;19;129718;-48
2023/10/13 06:31:22;;;;;;;5.72;2.00;;;;;;;20.09;53.96;100614.25;16112662;19;129480;-51
2023/10/13 06:36:46;;;;;;;4.25;1.70;;;;;;;20.09;53.99;100597.56;16109819;19;129552;-47
2023/10/13 06:42:08;;;;;;;4.65;1.60;;;;;;;20.09;53.77;100589.25;16112288;19;129657;-47
2023/10/13 06:47:32;;;;;;;3.70;1.80;;;;;;;20.10;53.91;100577.03;16112082;19;129740;-51
2023/10/13 06:52:54;;;;;;;3.42;1.77;;;;;;;20.10;54.43;100582.59;16110628;19;131048;-51
2023/10/13 06:58:17;;;;;;;5.35;1.92;;;;;;;20.10;54.42;100588.16;16111849;19;130283;-48
2023/10/13 07:03:39;;;;;;;6.07;2.00;;;;;;;20.12;54.17;100574.84;16109534;19;129638;-49
2023/10/13 07:09:04;;;;;;;4.82;2.08;;;;;;;20.13;53.96;100574.56;16107539;19;129747;-48
2023/10/13 07:14:26;;;;;;;3.47;1.70;;;;;;;20.14;53.88;100556.81;16108212;19;130135;-50
2023/10/13 07:19:53;;;;;;;5.15;2.08;;;;;;;20.14;54.33;100567.91;16124914;19;130265;-51
2023/10/13 07:25:23;;;;;;;5.53;2.38;;;;;;;20.17;54.21;100566.56;16125630;19;130295;-50
2023/10/13 07:36:27;;;;;;;6.95;1.90;;;;;;;20.20;54.22;100559.63;16123983;19;131312;-46
2023/10/13 07:42:07;;;;;;;5.28;1.67;;;;;;;20.19;54.36;100561.56;16124729;19;129573;-48
2023/10/13 07:47:32;;;;;;;3.65;1.73;;;;;;;20.16;54.73;100556.56;16126249;19;129947;-49
2023/10/13 07:53:19;;;;;;;5.70;1.70;;;;;;;20.15;54.76;100560.44;16123340;19;131242;-50
2023/10/13 07:58:53;;;;;;;;;;;;;;;20.12;54.94;100563.72;16123743;19;131820;-49
2023/10/13 08:04:22;;;;;;;8.40;3.10;;;;;;;20.14;55.10;100561.53;16122739;19;130162;-50
2023/10/13 08:09:51;;;;;;;14.43;3.80;;;;;;;20.12;55.20;100550.66;16119859;19;130875;-47
2023/10/13 08:15:31;;;;;;;13.43;4.25;;;;;;;20.59;54.25;100529.59;16123929;19;131354;-47
2023/10/13 08:20:53;;;;;;;13.60;4.32;;;;;;;20.72;54.12;100536.63;16123723;19;129503;-46
2023/10/13 08:32:23;;;;;;;16.30;4.22;;;;;;;20.88;53.90;100533.94;16120679;19;129832;-49
2023/10/13 08:37:56;;;;;;;12.07;4.53;;;;;;;20.72;53.86;100521.88;16115219;19;130262;-50
2023/10/13 08:43:18;;;;;;;16.40;4.97;;;;;;;20.66;53.84;100528.53;16124386;19;134295;-49
2023/10/13 08:48:40;;;;;;;17.50;5.10;;;;;;;20.57;54.19;100519.88;16119507;19;129530;-48
2023/10/13 08:54:12;;;;;;;15.32;4.63;;;;;;;20.52;54.31;100514.25;16117515;19;131400;-50
2023/10/13 08:59:52;;;;;;;16.75;5.13;;;;;;;20.51;54.53;100520.94;16118479;19;129881;-49
2023/10/13 09:11:10;;;;;;;14.38;5.68;;;;;;;20.48;54.18;100513.97;16116187;19;129539;-49
2023/10/13 09:22:03;;;;;;;11.70;5.07;;;;;;;20.48;53.91;100490.91;16116991;19;129469;-48
2023/10/13 09:27:30;;;;;;;16.92;5.47;;;;;;;20.50;54.08;100494.25;16115341;19;131110;-47
2023/10/13 09:33:01;;;;;;;16.67;4.90;;;;;;;20.53;53.95;100485.38;16117969;19;130999;-49
2023/10/13 09:38:24;;;;;;;10.77;5.10;;;;;;;20.51;53.88;100488.44;16114272;19;130147;-48
2023/10/13 09:43:46;;;;;;;16.42;5.95;;;;;;;20.52;53.96;100479.00;16115943;19;129997;-49
2023/10/13 09:49:33;;;;;;;20.30;5.45;;;;;;;20.52;53.94;100459.53;16115327;19;129501;-50
2023/10/13 09:55:25;;;;;;;17.48;5.80;;;;;;;20.53;53.57;100469.56;16115326;19;131191;-49
2023/10/13 10:00:58;;;;;;;12.23;5.57;;;;;;;20.53;53.86;100464.00;16113739;19;129676;-53
2023/10/13 10:06:27;;;;;;;13.48;5.25;;;;;;;20.53;53.45;100466.78;16110737;19;129336;-47
2023/10/13 10:12:08;;;;;;;12.60;5.72;;;;;;;20.55;53.19;100463.72;16113061;19;131735;-55
2023/10/13 10:17:39;;;;;;;18.88;6.75;;;;;;;20.53;53.38;100468.69;16113003;19;131533;-52
2023/10/13 10:23:01;;;;;;;18.33;6.10;;;;;;;20.52;53.58;100467.03;16112078;19;129858;-51
2023/10/13 10:28:23;;;;;;;17.83;5.50;;;;;;;20.53;53.53;100460.38;16112916;19;131369;-47
2023/10/13 10:33:50;;;;;;;17.42;6.25;;;;;;;20.53;53.35;100463.16;16107191;19;129547;-45
2023/10/13 10:39:13;;;;;;;16.02;5.93;;;;;;;20.51;53.25;100463.44;16109770;19;129806;-48
2023/10/13 10:44:42;;;;;;;13.15;6.18;;;;;;;20.52;52.75;100456.75;16109233;19;129629;-49
2023/10/13 10:50:18;;;;;;;11.32;5.85;;;;;;;20.52;53.10;100445.66;16108821;19;129510;-49
2023/10/13 10:55:40;;;;;;;20.90;6.23;;;;;;;20.54;52.66;100448.16;16112423;19;130282;-50
2023/10/13 11:01:10;;;;;;;13.75;5.93;;;;;;;20.56;52.90;100430.09;16109732;19;130317;-50
2023/10/13 11:06:38;;;;;;;13.43;5.60;;;;;;;20.58;52.92;100433.44;16108987;19;130420;-47
2023/10/13 11:12:24;;;;;;;19.00;6.70;;;;;;;20.62;52.68;100427.34;16110333;19;129505;-47
2023/10/13 11:17:51;;;;;;;14.50;5.55;;;;;;;20.63;52.61;100406.78;16108631;19;129571;-51
2023/10/13 11:23:15;;;;;;;16.63;5.70;;;;;;;20.65;52.55;100410.13;16110686;19;135128;-47
2023/10/13 11:28:37;;;;;;;13.65;5.78;;;;;;;20.65;52.41;100397.06;16110152;19;129543;-52
2023/10/13 11:34:02;;;;;;;17.15;5.93;;;;;;;20.67;52.41;100383.72;16109144;19;130759;-50
2023/10/13 11:39:30;;;;;;;13.55;5.57;;;;;;;20.70;52.66;100390.66;16104812;19;131201;-51
2023/10/13 11:45:15;;;;;;;18.83;5.13;;;;;;;20.71;52.15;100376.50;16106427;19;129555;-50
2023/10/13 11:50:35;;;;;;;16.77;6.50;;;;;;;20.72;52.53;100369.00;16109852;19;129541;-53
2023/10/13 11:55:57;;;;;;;19.75;5.70;;;;;;;20.74;52.05;100358.44;16108896;19;131856;-53
2023/10/13 12:07:02;;;;;;;13.40;4.85;;;;;;;20.79;52.04;100340.97;16121766;19;129673;-46
2023/10/13 12:12:26;;;;;;;14.98;5.82;;;;;;;20.80;51.81;100346.25;16119766;19;130659;-54
2023/10/13 12:17:49;;;;;;;15.63;5.38;;;;;;;20.81;51.64;100339.56;16120686;19;129591;-47
2023/10/13 12:23:19;;;;;;;25.70;6.00;;;;;;;20.83;51.60;100323.47;16121013;19;131075;-51
2023/10/13 12:28:50;;;;;;;21.85;6.18;;;;;;;20.79;51.82;100336.25;16120493;19;130419;-51
2023/10/13 12:34:19;;;;;;;16.88;5.70;;;;;;;20.76;51.72;100322.91;16121799;19;129452;-53
2023/10/13 12:51:19;;;;;;;19.92;6.00;;;;;;;20.66;51.51;100334.78;16116903;19;130795;-50
2023/10/13 12:56:41;;;;;;;15.45;5.70;;;;;;;20.64;51.93;100319.50;16117391;19;130111;-50
2023/10/13 13:02:07;;;;;;;14.85;5.30;;;;;;;20.64;51.51;100347.31;16118828;19;129420;-52
2023/10/13 13:07:29;;;;;;;14.60;5.45;;;;;;;20.64;51.35;100336.19;16116824;19;129734;-50
2023/10/13 13:12:51;;;;;;;17.98;5.70;;;;;;;20.66;51.25;100332.03;16115865;19;130731;-52
2023/10/13 13:18:13;;;;;;;20.40;6.03;;;;;;;20.69;51.48;100319.50;16116989;19;132439;-55
2023/10/13 13:23:35;;;;;;;17.48;6.00;;;;;;;20.71;51.36;100317.28;16119092;19;130285;-50
2023/10/13 13:28:57;;;;;;;16.52;5.13;;;;;;;20.73;51.31;100315.06;16115378;19;130705;-53
2023/10/13 13:34:21;;;;;;;20.92;5.72;;;;;;;20.73;51.15;100312.28;16118410;19;130751;-51
2023/10/13 13:39:45;;;;;;;17.58;5.35;;;;;;;20.74;51.34;100300.06;16116565;19;129797;-51
2023/10/13 13:45:41;;;;;;;16.30;5.18;;;;;;;20.75;50.77;100290.63;16117684;19;130135;-52
2023/10/13 13:51:04;;;;;;;18.50;4.75;;;;;;;20.75;50.95;100298.97;16115328;19;130405;-52
2023/10/13 13:56:28;;;;;;;15.60;4.65;;;;;;;20.75;50.78;100293.41;16115638;19;129468;-56
2023/10/13 14:01:52;;;;;;;13.32;4.55;;;;;;;20.74;51.04;100295.34;16113951;19;129937;-50
2023/10/13 14:07:16;;;;;;;15.03;5.00;;;;;;;20.77;50.91;100301.50;16109235;19;130058;-51
2023/10/13 14:12:44;;;;;;;12.27;4.10;;;;;;;20.76;51.00;100283.97;16113211;19;133323;-50
2023/10/13 14:18:07;;;;;;;16.02;4.90;;;;;;;20.77;50.69;100295.94;16109352;19;130861;-50
2023/10/13 14:23:30;;;;;;;18.70;4.80;;;;;;;20.77;50.43;100293.16;16110653;19;131822;-54
2023/10/13 14:29:14;;;;;;;13.55;4.80;;;;;;;20.78;50.12;100304.00;16110137;19;129064;-53
2023/10/13 14:34:36;;;;;;;14.60;4.82;;;;;;;20.78;50.64;100300.38;16110197;19;130732;-48
2023/10/13 14:39:59;;;;;;;20.42;4.80;;;;;;;20.76;50.29;100289.53;16111835;19;130119;-50
2023/10/13 14:45:22;;;;;;;12.88;4.88;;;;;;;20.74;50.21;100286.16;16108522;19;131608;-51
2023/10/13 14:50:45;;;;;;;17.55;5.32;;;;;;;20.74;50.22;100286.16;16102429;19;131029;-52
2023/10/13 14:56:08;;;;;;;17.25;5.13;;;;;;;20.72;50.40;100282.81;16109760;19;130458;-53
2023/10/13 15:01:32;;;;;;;19.55;5.65;;;;;;;20.70;50.23;100258.09;16108071;19;131375;-52
2023/10/13 15:06:55;;;;;;;18.75;6.13;;;;;;;20.66;50.37;100256.16;16108846;19;131596;-54
2023/10/13 15:12:20;;;;;;;21.20;5.68;;;;;;;20.64;50.11;100261.97;16105400;19;131084;-51
2023/10/13 15:17:48;;;;;;;27.33;7.20;;;;;;;20.63;50.59;100251.13;16103982;19;131158;-52
2023/10/13 15:23:14;;;;;;;15.13;5.60;;;;;;;20.63;50.30;100245.59;16102316;19;130031;-49
2023/10/13 15:28:48;;;;;;;20.02;6.57;;;;;;;20.65;50.72;100232.25;16099228;19;130540;-55
2023/10/13 15:34:13;;;;;;;18.98;6.18;;;;;;;20.67;50.76;100205.84;16099356;19;131370;-55
2023/10/13 15:39:36;;;;;;;15.30;5.70;;;;;;;20.68;50.75;100195.53;16112081;19;130869;-52
2023/10/13 15:44:59;;;;;;;18.52;6.47;;;;;;;20.69;50.69;100194.44;16119581;19;134235;-54
2023/10/13 15:50:21;;;;;;;14.98;5.68;;;;;;;20.67;50.36;100172.50;16116555;19;131254;-50
2023/10/13 15:55:45;;;;;;;15.95;6.10;;;;;;;20.68;50.70;100160.25;16119542;19;129274;-57
2023/10/13 16:01:08;;;;;;;14.50;5.22;;;;;;;20.70;50.60;100163.59;16121953;19;132446;-51
2023/10/13 16:06:30;;;;;;;18.10;5.13;;;;;;;20.71;50.50;100158.84;16116377;19;130591;-54
2023/10/13 16:11:53;;;;;;;19.33;5.57;;;;;;;20.72;50.96;100160.53;16118631;19;130681;-53
2023/10/13 16:17:15;;;;;;;16.83;5.70;;;;;;;20.72;50.75;100155.81;16115673;19;131150;-50
2023/10/13 16:22:37;;;;;;;18.02;5.07;;;;;;;20.74;50.80;100142.44;16124222;19;129524;-56
2023/10/13 16:27:59;;;;;;;13.52;5.07;;;;;;;20.73;50.82;100173.31;16124601;19;131829;-49
2023/10/13 16:33:22;;;;;;;12.82;4.57;;;;;;;20.73;50.52;100162.19;16120062;19;130025;-53
2023/10/13 16:38:45;;;;;;;14.02;5.50;;;;;;;20.71;51.05;100145.81;16121418;19;129636;-55
2023/10/13 16:44:11;;;;;;;14.18;4.68;;;;;;;20.69;50.80;100142.47;16119714;19;129483;-54
2023/10/13 16:49:33;;;;;;;22.27;4.97;;;;;;;20.67;50.91;100174.44;16120916;19;130834;-54
2023/10/13 16:54:55;;;;;;;13.98;4.97;;;;;;;20.64;50.99;100175.81;16121504;19;132156;-53
2023/10/13 17:00:18;;;;;;;10.80;4.22;;;;;;;20.64;50.71;100158.31;16119872;19;130116;-55
2023/10/13 17:05:48;;;;;;;13.02;4.97;;;;;;;20.63;51.01;100135.25;16118026;19;129660;-51
2023/10/13 17:11:15;;;;;;;10.88;4.18;;;;;;;20.60;51.03;100136.63;16114858;19;129563;-56
2023/10/13 17:16:37;;;;;;;10.83;4.47;;;;;;;20.60;51.05;100135.81;16119812;19;129294;-52
2023/10/13 17:21:58;;;;;;;10.20;4.18;;;;;;;20.59;51.35;100129.41;16116574;19;129529;-54
2023/10/13 17:27:22;;;;;;;12.27;4.30;;;;;;;20.58;51.07;100111.06;16117469;19;129154;-54
2023/10/13 17:32:44;;;;;;;14.70;4.85;;;;;;;20.58;51.07;100116.63;16117882;19;129001;-52
2023/10/13 17:38:07;;;;;;;11.90;4.30;;;;;;;20.57;51.43;100103.03;16111583;19;129594;-56
2023/10/13 17:43:29;;;;;;;11.07;4.80;;;;;;;20.56;51.62;100093.03;16119088;19;130522;-50
2023/10/13 17:48:55;;;;;;;11.02;4.32;;;;;;;20.56;51.51;100093.03;16116338;19;129329;-51
2023/10/13 17:54:19;;;;;;;8.65;4.50;;;;;;;20.55;51.49;100094.13;16116468;19;134510;-52
2023/10/13 17:59:46;;;;;;;11.30;4.32;;;;;;;20.53;51.72;100124.97;16113751;19;129646;-57
2023/10/13 18:05:12;;;;;;;9.05;4.50;;;;;;;20.54;51.69;100115.53;16115146;19;129545;-56
2023/10/13 18:10:34;;;;;;;7.45;4.10;;;;;;;20.53;51.42;100147.22;16113889;19;130611;-49
2023/10/13 18:15:56;;;;;;;9.73;4.78;;;;;;;20.52;51.78;100162.22;16114606;19;129920;-54
2023/10/13 18:21:18;;;;;;;8.25;4.22;;;;;;;20.52;51.39;100172.47;16116884;19;129478;-52
2023/10/13 18:26:40;;;;;;;12.23;4.25;;;;;;;20.51;51.76;100099.41;16114424;19;130909;-55
2023/10/13 18:32:04;;;;;;;7.38;4.43;;;;;;;20.50;51.69;100111.66;16117114;19;129862;-51
2023/10/13 18:37:26;;;;;;;7.50;3.88;;;;;;;20.49;51.83;100079.41;16114646;19;130156;-52
2023/10/13 18:42:47;;;;;;;8.70;4.18;;;;;;;20.49;52.07;100100.81;16115505;19;129703;-52
2023/10/13 18:48:12;;;;;;;9.55;4.47;;;;;;;20.49;51.97;100096.09;16113019;19;130174;-53
2023/10/13 18:53:35;;;;;;;8.80;4.50;;;;;;;20.49;52.09;100095.25;16114108;19;130937;-50
2023/10/13 18:59:02;;;;;;;10.50;4.13;;;;;;;20.47;52.12;100095.53;16114323;19;129278;-52
2023/10/13 19:04:24;;;;;;;9.75;4.47;;;;;;;20.47;51.92;100075.25;16110543;19;131452;-55
2023/10/13 19:09:46;;;;;;;11.75;4.80;;;;;;;20.46;51.77;100079.97;16109997;19;130369;-53
2023/10/13 19:15:12;;;;;;;8.85;4.25;;;;;;;20.45;51.82;100068.03;16140953;19;130841;-54
2023/10/13 19:20:35;;;;;;;8.75;4.50;;;;;;;20.45;52.21;100062.47;16141415;19;129679;-55
2023/10/13 19:25:57;;;;;;;7.78;3.95;;;;;;;20.44;52.03;100066.38;16144858;19;129446;-54
2023/10/13 19:31:24;;;;;;;10.05;4.05;;;;;;;20.45;51.95;100050.50;16137835;19;130582;-51
2023/10/13 19:36:46;;;;;;;8.88;3.90;;;;;;;20.44;52.24;100026.63;16141453;19;130587;-52
2023/10/13 19:42:08;;;;;;;7.80;3.67;;;;;;;20.43;52.25;100024.97;16138923;19;132442;-54
2023/10/13 19:47:30;;;;;;;6.53;3.85;;;;;;;20.43;51.80;100016.66;16141442;19;130504;-56
2023/10/13 19:52:52;;;;;;;5.80;3.33;;;;;;;20.43;52.14;100019.44;16141213;19;129154;-50
2023/10/13 19:58:14;;;;;;;7.32;4.30;;;;;;;20.42;52.26;100014.97;16138943;19;130825;-51
2023/10/13 20:03:43;;;;;;;6.72;3.72;;;;;;;20.42;52.21;99999.13;16140133;19;130505;-56
2023/10/13 20:09:24;;;;;;;6.45;3.72;;;;;;;20.41;52.37;99994.69;16139579;19;131877;-51
2023/10/13 20:14:46;;;;;;;8.48;3.70;;;;;;;20.40;52.15;99990.25;16139211;19;129750;-54
2023/10/13 20:20:11;;;;;;;7.15;3.78;;;;;;;20.42;52.01;100006.66;16141851;19;131962;-52
2023/10/13 20:25:33;;;;;;;4.75;3.58;;;;;;;20.40;52.28;99997.75;16127744;19;135172;-50
2023/10/13 20:30:59;;;;;;;9.32;4.50;;;;;;;20.41;52.53;99988.31;16125784;19;129700;-54
2023/10/13 20:36:25;;;;;;;6.85;4.10;;;;;;;20.39;52.52;99990.53;16120561;19;129948;-53
2023/10/13 20:41:49;;;;;;;;;;;;;;;20.36;52.20;99982.75;16108794;19;132267;-53
2023/10/13 20:47:10;;;;;;;8.60;4.07;;;;;;;20.34;52.42;99999.72;16117832;19;129598;-54
2023/10/13 20:52:33;;;;;;;11.18;4.05;;;;;;;20.35;52.73;99983.88;16117124;19;130513;-54
2023/10/13 20:57:56;;;;;;;8.05;3.90;;;;;;;20.37;52.22;99976.09;16118293;19;129665;-51
2023/10/13 21:03:18;;;;;;;9.10;4.15;;;;;;;20.37;52.63;99976.09;16120446;19;129608;-52
2023/10/13 21:08:45;;;;;;;8.48;4.38;;;;;;;20.37;52.44;99964.97;16119305;19;129761;-49
2023/10/13 21:14:07;;;;;;;8.95;4.03;;;;;;;20.37;52.46;99948.31;16116974;19;129218;-51
2023/10/13 21:19:29;;;;;;;8.07;4.40;;;;;;;20.36;52.43;99944.72;16118188;19;130395;-55
2023/10/13 21:24:51;;;;;;;7.00;4.30;;;;;;;20.35;52.73;99943.06;16116339;19;131046;-52
2023/10/13 21:30:13;;;;;;;8.27;4.57;;;;;;;20.36;52.30;99947.50;16111961;19;132187;-50
2023/10/13 21:35:39;;;;;;;11.45;4.32;;;;;;;20.36;52.29;99943.88;16111402;19;131138;-54
2023/10/13 21:41:07;;;;;;;12.70;4.97;;;;;;;20.38;52.48;99955.53;16112231;19;129795;-51
2023/10/13 21:46:29;;;;;;;18.52;4.68;;;;;;;20.37;52.44;99953.88;16114098;19;129765;-55
2023/10/13 21:51:51;;;;;;;10.15;4.70;;;;;;;20.37;52.14;99946.34;16114926;19;131078;-51
2023/10/13 21:57:13;;;;;;;14.95;4.65;;;;;;;20.38;52.26;99939.69;16113981;19;130286;-51
2023/10/13 22:02:35;;;;;;;9.73;4.45;;;;;;;20.38;52.69;99933.31;16115154;19;129888;-52
2023/10/13 22:07:58;;;;;;;9.68;4.50;;;;;;;20.36;52.66;99939.16;16114849;19;131019;-50
2023/10/13 22:13:20;;;;;;;8.85;4.53;;;;;;;20.36;52.46;99941.94;16109583;19;130612;-49
2023/10/13 22:18:44;;;;;;;12.02;4.93;;;;;;;20.37;52.71;99939.97;16112488;19;130260;-54
2023/10/13 22:24:10;;;;;;;11.25;4.70;;;;;;;20.36;52.50;99947.50;16116965;19;129899;-52
2023/10/13 22:29:32;;;;;;;9.40;4.63;;;;;;;20.36;52.38;99938.31;16112170;19;129477;-48
2023/10/13 22:34:54;;;;;;;12.80;5.32;;;;;;;20.36;52.46;99947.50;16111613;19;129574;-50
2023/10/13 22:40:20;;;;;;;9.65;4.82;;;;;;;20.36;52.40;99949.41;16115635;19;130755;-52
2023/10/13 22:45:43;;;;;;;9.25;4.90;;;;;;;20.35;52.64;99950.53;16107010;19;131513;-52
2023/10/13 22:51:12;;;;;;;10.02;4.63;;;;;;;20.35;52.38;99950.53;16108735;19;130480;-51
2023/10/13 22:56:40;;;;;;;12.30;4.72;;;;;;;20.34;52.28;99959.97;16108867;19;129743;-50
2023/10/13 23:02:02;;;;;;;11.07;5.30;;;;;;;20.33;52.60;99969.41;16106444;19;129632;-53
2023/10/13 23:07:24;;;;;;;8.95;4.93;;;;;;;20.32;52.23;99978.88;16106577;19;130275;-58
2023/10/13 23:12:46;;;;;;;11.70;4.85;;;;;;;20.33;52.29;99969.41;16106717;19;130000;-57
2023/10/13 23:18:11;;;;;;;14.13;5.38;;;;;;;20.31;52.16;99972.50;16110310;19;129856;-54
2023/10/13 23:23:33;;;;;;;8.48;4.40;;;;;;;20.31;52.16;99980.81;16112224;19;130547;-56
2023/10/13 23:28:55;;;;;;;7.90;4.18;;;;;;;20.28;52.13;99993.34;16105847;19;129643;-55
2023/10/13 23:34:17;;;;;;;11.43;3.70;;;;;;;20.25;51.90;100007.78;16111635;19;130065;-55
2023/10/13 23:39:39;;;;;;;9.77;3.88;;;;;;;20.26;52.08;100065.00;16104959;19;131914;-57
2023/10/13 23:45:18;;;;;;;7.75;3.30;;;;;;;20.30;51.76;100148.59;16102841;19;130239;-56
2023/10/13 23:50:49;;;;;;;7.18;3.13;;;;;;;20.31;51.90;100155.81;16102215;19;129512;-55
2023/10/13 23:56:14;;;;;;;7.38;2.72;;;;;;;20.30;51.94;100159.69;16104966;19;130992;-52
